Time;durP1;ratioP1;P1;durP2;ratioP2;P2;SDS_P1;SDS_P2;PMS_P1;PMS_P2;Temp;Humidity;BMP_temperature;BMP_pressure;BME280_temperature;BME280_humidity;BME280_pressure;Samples;Min_cycle;Max_cycle;Signal;HPM_P1;HPM_P2
2023/07/16 00:00:39;;;;;;;4.65;3.85;;;;;;;;;;5052637;28;20692;-38
2023/07/16 00:03:26;;;;;;;8.18;4.28;;;;;;;;;;5052604;28;20234;-38
2023/07/16 00:05:54;;;;;;;4.28;3.67;;;;;;;;;;5052617;28;20305;-38
2023/07/16 00:08:22;;;;;;;6.70;4.05;;;;;;;;;;5052454;28;20199;-39
2023/07/16 00:10:49;;;;;;;4.90;3.95;;;;;;;;;;5052697;28;20235;-40
2023/07/16 00:13:16;;;;;;;7.20;4.07;;;;;;;;;;5052345;28;20664;-40
2023/07/16 00:15:43;;;;;;;4.60;3.72;;;;;;;;;;5051792;28;20208;-39
2023/07/16 00:18:11;;;;;;;5.40;3.90;;;;;;;;;;5052532;28;20196;-38
2023/07/16 00:20:38;;;;;;;6.47;4.38;;;;;;;;;;5052538;28;20644;-38
2023/07/16 00:23:05;;;;;;;5.75;4.20;;;;;;;;;;5052206;28;20660;-38
2023/07/16 00:25:32;;;;;;;4.93;4.07;;;;;;;;;;5052294;28;20665;-39
2023/07/16 00:27:59;;;;;;;5.10;4.13;;;;;;;;;;5056918;28;20288;-39
2023/07/16 00:30:26;;;;;;;5.97;4.22;;;;;;;;;;5070921;28;20265;-38
2023/07/16 00:32:54;;;;;;;5.05;4.20;;;;;;;;;;5072605;28;20187;-38
2023/07/16 00:35:21;;;;;;;5.03;3.90;;;;;;;;;;5070915;28;20199;-38
2023/07/16 00:37:48;;;;;;;5.63;4.22;;;;;;;;;;5071242;28;20233;-38
2023/07/16 00:40:15;;;;;;;5.00;4.13;;;;;;;;;;5072321;28;20204;-39
2023/07/16 00:42:42;;;;;;;5.35;4.10;;;;;;;;;;5071049;28;20200;-38
2023/07/16 00:45:16;;;;;;;7.38;4.38;;;;;;;;;;5071974;28;20582;-38
2023/07/16 00:47:44;;;;;;;4.97;3.80;;;;;;;;;;5072700;28;20226;-39
2023/07/16 00:50:11;;;;;;;7.95;4.25;;;;;;;;;;5052966;28;20200;-38
2023/07/16 00:52:39;;;;;;;5.95;4.10;;;;;;;;;;5053015;28;20204;-38
2023/07/16 00:55:08;;;;;;;5.82;3.63;;;;;;;;;;5051540;28;20203;-38
2023/07/16 00:57:37;;;;;;;8.30;3.90;;;;;;;;;;5051567;28;20669;-39
2023/07/16 01:00:05;;;;;;;6.03;3.95;;;;;;;;;;5052307;28;20708;-39
2023/07/16 01:02:32;;;;;;;5.43;4.35;;;;;;;;;;5051458;28;20205;-38
2023/07/16 01:04:59;;;;;;;5.50;4.20;;;;;;;;;;5051561;28;20722;-38
2023/07/16 01:07:29;;;;;;;5.28;4.22;;;;;;;;;;5052715;28;20232;-39
2023/07/16 01:09:56;;;;;;;8.23;4.40;;;;;;;;;;5068355;28;20553;-39
2023/07/16 01:12:24;;;;;;;6.47;4.28;;;;;;;;;;5068370;28;20211;-38
2023/07/16 01:14:52;;;;;;;6.10;4.38;;;;;;;;;;5068070;28;20196;-38
2023/07/16 01:17:20;;;;;;;4.70;4.20;;;;;;;;;;5054670;28;20210;-39
2023/07/16 01:19:47;;;;;;;4.88;4.07;;;;;;;;;;5072726;28;20257;-40
2023/07/16 01:22:47;;;;;;;5.60;4.40;;;;;;;;;;5071337;28;20200;-39
2023/07/16 01:25:38;;;;;;;10.80;4.70;;;;;;;;;;5055213;28;20196;-39
2023/07/16 01:28:16;;;;;;;6.97;4.80;;;;;;;;;;5074497;28;20231;-39
2023/07/16 01:30:44;;;;;;;6.15;4.07;;;;;;;;;;5075005;28;20207;-38
2023/07/16 01:33:13;;;;;;;5.50;4.55;;;;;;;;;;5076424;28;20188;-39
2023/07/16 01:35:40;;;;;;;11.35;4.70;;;;;;;;;;5074218;28;20281;-38
2023/07/16 01:38:10;;;;;;;4.95;4.20;;;;;;;;;;5074599;28;20257;-38
2023/07/16 01:40:36;;;;;;;5.05;4.18;;;;;;;;;;5075090;28;20222;-39
2023/07/16 01:43:04;;;;;;;5.72;4.65;;;;;;;;;;5075616;28;20207;-38
2023/07/16 01:45:31;;;;;;;5.78;4.22;;;;;;;;;;5074875;28;20601;-39
2023/07/16 01:48:36;;;;;;;8.32;4.55;;;;;;;;;;5074601;28;20300;-38
2023/07/16 01:51:04;;;;;;;7.50;4.72;;;;;;;;;;5075641;28;20211;-38
2023/07/16 01:53:32;;;;;;;6.03;4.30;;;;;;;;;;5075702;28;20272;-38
2023/07/16 01:56:02;;;;;;;6.80;4.75;;;;;;;;;;5075493;28;20256;-38
2023/07/16 01:58:29;;;;;;;6.25;5.15;;;;;;;;;;5074480;28;20207;-38
2023/07/16 02:00:56;;;;;;;6.82;4.43;;;;;;;;;;5074159;28;20236;-38
2023/07/16 02:03:23;;;;;;;5.60;4.70;;;;;;;;;;5075214;28;20253;-38
2023/07/16 02:05:51;;;;;;;9.57;5.10;;;;;;;;;;5074296;28;20659;-40
2023/07/16 02:08:18;;;;;;;7.55;4.85;;;;;;;;;;5075032;28;20227;-38
2023/07/16 02:10:47;;;;;;;6.35;4.78;;;;;;;;;;5075204;28;20208;-39
2023/07/16 02:13:14;;;;;;;6.65;4.78;;;;;;;;;;5074959;28;20207;-38
2023/07/16 02:15:42;;;;;;;7.20;5.10;;;;;;;;;;5073725;28;20559;-38
2023/07/16 02:18:10;;;;;;;5.13;4.47;;;;;;;;;;5074846;28;20211;-39
2023/07/16 02:20:37;;;;;;;6.15;4.68;;;;;;;;;;5073720;28;20555;-38
2023/07/16 02:23:04;;;;;;;5.60;4.38;;;;;;;;;;5073706;28;20257;-38
2023/07/16 02:25:32;;;;;;;6.05;4.60;;;;;;;;;;5074529;28;20294;-39
2023/07/16 02:27:59;;;;;;;7.43;4.65;;;;;;;;;;5074595;28;20772;-38
2023/07/16 02:30:29;;;;;;;5.70;4.78;;;;;;;;;;5073531;28;20749;-39
2023/07/16 02:32:56;;;;;;;5.35;4.28;;;;;;;;;;5073407;28;20616;-38
2023/07/16 02:35:23;;;;;;;8.52;5.07;;;;;;;;;;5074463;28;20203;-38
2023/07/16 02:37:51;;;;;;;4.85;4.03;;;;;;;;;;5072949;28;20203;-38
2023/07/16 02:40:18;;;;;;;6.30;4.75;;;;;;;;;;5075119;28;20199;-38
2023/07/16 02:42:45;;;;;;;5.70;4.53;;;;;;;;;;5073454;28;20572;-39
2023/07/16 02:45:12;;;;;;;6.18;4.80;;;;;;;;;;5072872;28;20656;-39
2023/07/16 02:47:40;;;;;;;6.10;4.68;;;;;;;;;;5074372;28;20222;-38
2023/07/16 02:50:07;;;;;;;5.68;4.80;;;;;;;;;;5074372;28;20202;-38
2023/07/16 02:52:35;;;;;;;11.88;4.72;;;;;;;;;;5073024;28;20570;-38
2023/07/16 02:55:02;;;;;;;5.15;4.53;;;;;;;;;;5073135;28;20203;-38
2023/07/16 02:57:29;;;;;;;7.07;4.60;;;;;;;;;;5074225;28;20212;-38
2023/07/16 02:59:56;;;;;;;5.93;4.90;;;;;;;;;;5074418;28;20232;-38
2023/07/16 03:02:23;;;;;;;6.45;5.00;;;;;;;;;;5056596;28;20203;-39
2023/07/16 03:04:51;;;;;;;8.48;4.75;;;;;;;;;;5073022;28;20199;-38
2023/07/16 03:07:19;;;;;;;7.00;4.85;;;;;;;;;;5073099;28;20284;-38
2023/07/16 03:09:46;;;;;;;6.72;4.97;;;;;;;;;;5074131;28;20237;-38
2023/07/16 03:12:14;;;;;;;8.43;5.28;;;;;;;;;;5072819;28;20204;-38
2023/07/16 03:14:41;;;;;;;5.93;4.80;;;;;;;;;;5073192;28;20286;-39
2023/07/16 03:17:08;;;;;;;6.65;5.45;;;;;;;;;;5072232;28;20206;-39
2023/07/16 03:19:35;;;;;;;6.57;4.85;;;;;;;;;;5072010;28;20230;-41
2023/07/16 03:22:03;;;;;;;6.95;4.70;;;;;;;;;;5073672;28;20207;-39
2023/07/16 03:24:31;;;;;;;7.82;5.25;;;;;;;;;;5072295;28;20227;-39
2023/07/16 03:26:58;;;;;;;6.10;5.15;;;;;;;;;;5073466;28;20231;-38
2023/07/16 03:29:39;;;;;;;7.40;5.13;;;;;;;;;;5072474;28;20230;-39
2023/07/16 03:32:10;;;;;;;6.75;5.10;;;;;;;;;;5072545;28;20682;-39
2023/07/16 03:34:37;;;;;;;5.80;5.03;;;;;;;;;;5073584;28;20211;-38
2023/07/16 03:37:04;;;;;;;7.15;4.90;;;;;;;;;;5072670;28;20211;-38
2023/07/16 03:39:32;;;;;;;6.75;5.45;;;;;;;;;;5072517;28;20277;-38
2023/07/16 03:41:59;;;;;;;6.80;5.05;;;;;;;;;;5073840;28;20207;-39
2023/07/16 03:44:26;;;;;;;7.25;5.20;;;;;;;;;;5073528;28;20212;-39
2023/07/16 03:46:54;;;;;;;6.78;5.05;;;;;;;;;;5072335;28;20276;-39
2023/07/16 03:49:22;;;;;;;7.88;5.38;;;;;;;;;;5071543;28;20668;-39
2023/07/16 03:51:49;;;;;;;6.45;4.40;;;;;;;;;;5069924;28;20226;-39
2023/07/16 03:54:16;;;;;;;9.07;5.25;;;;;;;;;;5062547;28;20212;-39
2023/07/16 03:56:43;;;;;;;7.90;5.35;;;;;;;;;;5052215;28;20200;-39
2023/07/16 03:59:10;;;;;;;7.30;4.63;;;;;;;;;;5053025;28;20657;-39
2023/07/16 04:01:38;;;;;;;5.60;4.57;;;;;;;;;;5052288;28;20207;-38
2023/07/16 04:04:05;;;;;;;6.15;4.60;;;;;;;;;;5051715;28;20204;-38
2023/07/16 04:06:32;;;;;;;5.22;4.45;;;;;;;;;;5051750;28;20253;-39
2023/07/16 05:22:53;;;;;;;3.55;3.13;;;;;;;;;;5096267;27;20731;-35
2023/07/16 05:25:20;;;;;;;3.20;2.90;;;;;;;;;;5096482;28;20542;-36
2023/07/16 05:27:47;;;;;;;4.93;2.50;;;;;;;;;;5096301;28;20230;-36
2023/07/16 05:30:15;;;;;;;3.78;2.92;;;;;;;;;;5082389;28;20598;-37
2023/07/16 05:32:42;;;;;;;3.63;2.60;;;;;;;;;;5064628;28;20235;-36
2023/07/16 05:35:10;;;;;;;5.03;3.30;;;;;;;;;;5064900;28;20560;-44
2023/07/16 05:37:37;;;;;;;3.92;2.70;;;;;;;;;;5081304;28;20716;-41
2023/07/16 05:40:05;;;;;;;3.60;2.72;;;;;;;;;;5070660;28;20261;-41
2023/07/16 05:42:32;;;;;;;3.83;2.75;;;;;;;;;;5074655;28;20542;-39
2023/07/16 05:45:00;;;;;;;3.70;2.90;;;;;;;;;;5064589;28;20196;-41
2023/07/16 05:47:27;;;;;;;3.78;2.65;;;;;;;;;;5066356;28;20260;-40
2023/07/16 05:49:54;;;;;;;4.95;2.58;;;;;;;;;;5081736;28;20231;-35
2023/07/16 05:52:21;;;;;;;3.75;2.60;;;;;;;;;;5081936;28;20269;-38
2023/07/16 05:54:48;;;;;;;3.50;2.85;;;;;;;;;;5075349;28;20210;-41
2023/07/16 05:57:15;;;;;;;3.08;2.60;;;;;;;;;;5075527;28;20651;-35
2023/07/16 05:59:43;;;;;;;3.55;2.72;;;;;;;;;;5075259;28;20675;-36
2023/07/16 06:02:10;;;;;;;7.13;2.50;;;;;;;;;;5075085;28;20689;-40
2023/07/16 06:04:37;;;;;;;3.63;2.70;;;;;;;;;;5072545;28;20218;-34
2023/07/16 06:07:04;;;;;;;2.92;2.25;;;;;;;;;;5067702;28;20199;-38
2023/07/16 06:09:33;;;;;;;4.50;2.40;;;;;;;;;;5068166;28;20199;-40
2023/07/16 06:12:00;;;;;;;3.42;2.40;;;;;;;;;;5062784;28;20550;-39
2023/07/16 06:14:27;;;;;;;2.67;2.30;;;;;;;;;;5065125;28;20596;-38
2023/07/16 06:16:54;;;;;;;4.00;2.35;;;;;;;;;;5064939;28;20233;-38
2023/07/16 06:19:22;;;;;;;2.40;2.20;;;;;;;;;;5063760;28;20192;-37
2023/07/16 06:21:49;;;;;;;2.95;2.03;;;;;;;;;;5064751;28;20596;-39
2023/07/16 06:24:16;;;;;;;2.53;2.05;;;;;;;;;;5077923;28;20203;-37
2023/07/16 06:26:43;;;;;;;3.08;2.20;;;;;;;;;;5072702;28;20200;-30
2023/07/16 06:29:10;;;;;;;2.55;2.10;;;;;;;;;;5063609;28;20223;-36
2023/07/16 06:31:37;;;;;;;2.63;2.13;;;;;;;;;;5065039;28;20682;-42
2023/07/16 06:34:05;;;;;;;2.80;1.90;;;;;;;;;;5063192;28;20589;-42
2023/07/16 06:36:32;;;;;;;2.60;2.35;;;;;;;;;;5055125;28;20211;-39
2023/07/16 06:39:00;;;;;;;2.95;2.10;;;;;;;;;;5037100;28;20204;-36
2023/07/16 06:41:28;;;;;;;5.15;2.10;;;;;;;;;;5056483;28;20296;-38
2023/07/16 06:43:55;;;;;;;3.25;2.10;;;;;;;;;;5068762;28;20207;-37
2023/07/16 06:46:22;;;;;;;2.20;1.90;;;;;;;;;;5062487;28;20227;-35
2023/07/16 06:48:50;;;;;;;2.72;2.30;;;;;;;;;;5068954;28;20227;-38
2023/07/16 06:51:17;;;;;;;2.58;1.90;;;;;;;;;;5062678;28;20211;-40
2023/07/16 06:53:47;;;;;;;4.78;2.33;;;;;;;;;;5067469;28;20272;-32
2023/07/16 06:56:15;;;;;;;3.15;2.10;;;;;;;;;;5071749;28;20262;-39
2023/07/16 06:58:42;;;;;;;2.33;2.10;;;;;;;;;;5073948;28;20272;-35
2023/07/16 07:01:09;;;;;;;2.28;1.95;;;;;;;;;;5072060;28;20207;-38
2023/07/16 07:03:37;;;;;;;3.35;1.95;;;;;;;;;;5054268;28;20558;-42
2023/07/16 07:06:04;;;;;;;2.45;2.05;;;;;;;;;;5055067;28;20211;-37
2023/07/16 07:08:32;;;;;;;2.60;1.83;;;;;;;;;;5063551;28;20203;-39
2023/07/16 07:10:59;;;;;;;3.28;1.98;;;;;;;;;;5064322;28;20222;-43
2023/07/16 07:13:26;;;;;;;2.72;2.20;;;;;;;;;;5062100;28;20198;-42
2023/07/16 07:15:53;;;;;;;3.88;1.98;;;;;;;;;;5062452;28;20253;-39
2023/07/16 07:18:21;;;;;;;2.80;2.13;;;;;;;;;;5064628;28;20199;-37
2023/07/16 07:20:48;;;;;;;3.95;2.10;;;;;;;;;;5065479;28;20238;-38
2023/07/16 07:23:16;;;;;;;3.05;2.08;;;;;;;;;;5064250;28;20246;-36
2023/07/16 07:25:43;;;;;;;2.72;2.22;;;;;;;;;;5061548;28;20227;-35
2023/07/16 07:28:10;;;;;;;3.10;2.03;;;;;;;;;;5063495;28;20245;-39
2023/07/16 07:30:38;;;;;;;3.15;2.10;;;;;;;;;;5063768;28;20679;-41
2023/07/16 07:33:05;;;;;;;2.70;2.10;;;;;;;;;;5061009;28;20200;-39
2023/07/16 07:35:32;;;;;;;6.93;2.53;;;;;;;;;;5063631;28;20241;-35
2023/07/16 07:37:59;;;;;;;3.53;2.00;;;;;;;;;;5066047;28;20552;-40
2023/07/16 07:40:26;;;;;;;4.20;2.90;;;;;;;;;;5064314;28;20199;-38
2023/07/16 07:42:54;;;;;;;10.85;3.75;;;;;;;;;;5062118;28;20656;-40
2023/07/16 07:45:21;;;;;;;4.82;2.88;;;;;;;;;;5062035;28;20203;-38
2023/07/16 07:47:48;;;;;;;2.53;1.83;;;;;;;;;;5059329;28;20200;-34
2023/07/16 07:50:15;;;;;;;4.00;2.28;;;;;;;;;;5055879;28;20303;-36
2023/07/16 07:52:43;;;;;;;2.97;2.00;;;;;;;;;;5051918;28;20401;-39
2023/07/16 07:55:10;;;;;;;3.85;2.10;;;;;;;;;;5057826;28;20238;-42
2023/07/16 07:57:37;;;;;;;3.97;2.30;;;;;;;;;;5072080;28;20203;-40
2023/07/16 08:00:05;;;;;;;2.60;2.22;;;;;;;;;;5072142;28;20302;-43
2023/07/16 08:02:38;;;;;;;3.42;2.13;;;;;;;;;;5072755;28;20187;-38
2023/07/16 08:05:06;;;;;;;2.63;2.00;;;;;;;;;;5072779;28;20195;-37
2023/07/16 08:07:34;;;;;;;2.67;1.90;;;;;;;;;;5072788;28;20199;-40
2023/07/16 08:10:01;;;;;;;2.92;2.20;;;;;;;;;;5073717;28;20231;-40
2023/07/16 08:12:30;;;;;;;2.97;1.95;;;;;;;;;;5055504;28;20211;-39
2023/07/16 08:14:58;;;;;;;1.90;1.60;;;;;;;;;;5052878;28;20212;-41
2023/07/16 08:17:26;;;;;;;2.25;1.80;;;;;;;;;;5052765;28;20203;-37
2023/07/16 08:19:53;;;;;;;2.83;2.00;;;;;;;;;;5052838;28;20203;-38
2023/07/16 08:22:21;;;;;;;3.03;1.67;;;;;;;;;;5053647;28;20235;-37
2023/07/16 08:24:48;;;;;;;2.92;1.95;;;;;;;;;;5052981;28;20653;-38
2023/07/16 08:27:16;;;;;;;2.40;1.80;;;;;;;;;;5053100;28;20196;-38
2023/07/16 08:29:43;;;;;;;2.35;1.85;;;;;;;;;;5053099;28;20223;-40
2023/07/16 08:32:10;;;;;;;2.33;1.80;;;;;;;;;;5053027;28;20227;-40
2023/07/16 08:34:37;;;;;;;2.83;2.00;;;;;;;;;;5063813;28;20198;-40
2023/07/16 08:37:05;;;;;;;2.33;1.63;;;;;;;;;;5066674;28;20229;-40
2023/07/16 08:39:32;;;;;;;3.17;1.60;;;;;;;;;;5072239;28;20256;-39
2023/07/16 08:41:59;;;;;;;2.50;1.85;;;;;;;;;;5052983;28;20204;-42
2023/07/16 08:44:27;;;;;;;2.92;2.08;;;;;;;;;;5051618;28;20660;-40
2023/07/16 08:46:55;;;;;;;2.97;1.70;;;;;;;;;;5069905;28;20570;-39
2023/07/16 08:49:23;;;;;;;2.22;1.70;;;;;;;;;;5063911;28;20196;-42
2023/07/16 08:51:52;;;;;;;3.10;2.00;;;;;;;;;;5062862;28;20288;-42
2023/07/16 08:54:19;;;;;;;1.92;1.70;;;;;;;;;;5063102;28;20196;-40
2023/07/16 08:56:47;;;;;;;2.75;2.20;;;;;;;;;;5061886;28;20598;-38
2023/07/16 08:59:15;;;;;;;2.22;1.75;;;;;;;;;;5056519;28;20200;-41
2023/07/16 09:01:42;;;;;;;2.22;1.77;;;;;;;;;;5056773;28;20203;-39
2023/07/16 09:04:10;;;;;;;2.22;1.70;;;;;;;;;;5080456;28;20226;-39
2023/07/16 09:06:37;;;;;;;3.17;1.77;;;;;;;;;;5078688;28;20539;-40
2023/07/16 09:09:04;;;;;;;3.97;1.90;;;;;;;;;;5076369;28;20688;-39
2023/07/16 09:11:33;;;;;;;3.25;1.95;;;;;;;;;;5076646;28;20230;-41
2023/07/16 09:14:03;;;;;;;2.83;1.90;;;;;;;;;;5076108;28;20204;-41
2023/07/16 09:16:34;;;;;;;1.92;1.60;;;;;;;;;;5076234;28;20200;-42
2023/07/16 09:19:10;;;;;;;1.98;1.65;;;;;;;;;;5074667;28;20611;-40
2023/07/16 09:21:37;;;;;;;4.88;1.95;;;;;;;;;;5056099;28;20242;-41
2023/07/16 09:24:08;;;;;;;3.30;1.77;;;;;;;;;;5067545;28;20205;-39
2023/07/16 09:26:39;;;;;;;3.83;1.67;;;;;;;;;;5056578;28;20215;-39
2023/07/16 09:29:07;;;;;;;1.88;1.67;;;;;;;;;;5056082;28;20222;-39
2023/07/16 09:31:34;;;;;;;2.50;2.10;;;;;;;;;;5056200;28;20236;-41
2023/07/16 09:34:02;;;;;;;2.47;1.80;;;;;;;;;;5055988;28;20224;-39
2023/07/16 09:36:29;;;;;;;2.60;2.00;;;;;;;;;;5065158;28;20226;-40
2023/07/16 09:38:57;;;;;;;2.05;1.70;;;;;;;;;;5057657;28;20669;-40
2023/07/16 09:41:25;;;;;;;2.63;1.95;;;;;;;;;;5060681;28;20210;-40
2023/07/16 09:43:53;;;;;;;1.73;1.63;;;;;;;;;;5075410;28;20207;-42
2023/07/16 09:46:20;;;;;;;2.28;1.70;;;;;;;;;;5075692;28;20191;-43
2023/07/16 09:48:47;;;;;;;2.50;1.70;;;;;;;;;;5074822;28;20858;-43
2023/07/16 09:51:15;;;;;;;2.35;1.90;;;;;;;;;;5073670;28;20729;-44
2023/07/16 09:53:43;;;;;;;2.28;1.83;;;;;;;;;;5074666;28;20261;-42
2023/07/16 09:56:12;;;;;;;2.28;1.80;;;;;;;;;;5073087;28;20203;-39
2023/07/16 09:58:40;;;;;;;2.33;1.80;;;;;;;;;;5073445;28;20195;-41
2023/07/16 10:01:08;;;;;;;3.47;1.95;;;;;;;;;;5074328;28;20203;-41
2023/07/16 10:03:35;;;;;;;2.38;1.75;;;;;;;;;;5073657;28;20192;-41
2023/07/16 10:06:06;;;;;;;2.33;2.00;;;;;;;;;;5075283;28;20261;-40
2023/07/16 10:08:34;;;;;;;1.90;1.67;;;;;;;;;;5075578;28;20207;-41
2023/07/16 10:11:02;;;;;;;2.20;1.88;;;;;;;;;;5075504;28;20231;-41
2023/07/16 10:13:29;;;;;;;2.03;1.60;;;;;;;;;;5075269;28;20244;-39
2023/07/16 10:15:58;;;;;;;2.50;1.90;;;;;;;;;;5075246;28;20566;-40
2023/07/16 10:18:34;;;;;;;2.53;2.10;;;;;;;;;;5075367;28;20264;-43
2023/07/16 10:21:05;;;;;;;3.35;2.00;;;;;;;;;;5075027;28;20318;-42
2023/07/16 10:23:40;;;;;;;3.63;2.28;;;;;;;;;;5075187;28;20640;-42
2023/07/16 10:26:10;;;;;;;6.30;1.88;;;;;;;;;;5075175;28;20198;-40
2023/07/16 10:28:39;;;;;;;2.55;1.90;;;;;;;;;;5068794;28;20551;-40
2023/07/16 10:31:23;;;;;;;2.28;1.80;;;;;;;;;;5054685;28;20232;-38
2023/07/16 10:34:07;;;;;;;3.10;1.80;;;;;;;;;;5055135;28;20191;-40
2023/07/16 10:36:39;;;;;;;2.22;1.98;;;;;;;;;;5055050;28;20203;-41
2023/07/16 10:39:07;;;;;;;3.60;2.03;;;;;;;;;;5054862;28;20407;-40
2023/07/16 10:41:34;;;;;;;2.25;1.80;;;;;;;;;;5054868;28;20359;-37
2023/07/16 10:44:01;;;;;;;3.65;1.95;;;;;;;;;;5054716;28;20202;-40
2023/07/16 10:46:32;;;;;;;2.75;1.77;;;;;;;;;;5062037;28;20257;-44
2023/07/16 10:48:59;;;;;;;1.42;1.33;;;;;;;;;;5067977;28;20223;-43
2023/07/16 10:51:26;;;;;;;3.13;2.15;;;;;;;;;;5062422;28;20595;-40
2023/07/16 10:53:57;;;;;;;2.83;1.88;;;;;;;;;;5065519;28;20705;-42
2023/07/16 10:56:25;;;;;;;2.33;2.00;;;;;;;;;;5062748;28;20312;-43
2023/07/16 10:58:52;;;;;;;1.60;1.40;;;;;;;;;;5066596;28;20220;-42
2023/07/16 11:01:19;;;;;;;2.20;1.70;;;;;;;;;;5065520;28;20213;-45
2023/07/16 11:03:47;;;;;;;2.75;1.70;;;;;;;;;;5069793;28;20225;-43
2023/07/16 11:06:16;;;;;;;2.80;2.03;;;;;;;;;;5063662;28;20764;-43
2023/07/16 11:08:44;;;;;;;1.60;1.48;;;;;;;;;;5063612;28;20223;-42
2023/07/16 11:11:11;;;;;;;1.88;1.63;;;;;;;;;;5061988;28;20557;-43
2023/07/16 11:13:38;;;;;;;2.47;2.10;;;;;;;;;;5063874;28;20219;-42
2023/07/16 11:16:09;;;;;;;3.63;2.03;;;;;;;;;;5070455;28;20707;-43
2023/07/16 11:18:37;;;;;;;3.65;2.00;;;;;;;;;;5079964;28;20222;-42
2023/07/16 11:21:04;;;;;;;2.10;1.80;;;;;;;;;;5069688;28;20247;-42
2023/07/16 11:23:35;;;;;;;2.20;1.70;;;;;;;;;;5059086;28;20211;-42
2023/07/16 11:26:03;;;;;;;2.55;1.88;;;;;;;;;;5059550;28;20188;-43
2023/07/16 11:28:38;;;;;;;2.47;1.58;;;;;;;;;;5063892;28;20614;-42
2023/07/16 11:31:14;;;;;;;2.28;2.00;;;;;;;;;;5059666;28;20219;-43
2023/07/16 11:33:43;;;;;;;2.00;1.70;;;;;;;;;;5069386;28;20292;-42
2023/07/16 11:36:11;;;;;;;5.00;1.98;;;;;;;;;;5061712;28;20230;-43
2023/07/16 11:38:39;;;;;;;1.73;1.63;;;;;;;;;;5072948;28;20219;-43
2023/07/16 11:41:06;;;;;;;2.20;1.80;;;;;;;;;;5063587;28;20219;-44
2023/07/16 11:43:37;;;;;;;2.08;1.63;;;;;;;;;;5072737;28;20258;-43
2023/07/16 11:46:15;;;;;;;2.40;1.92;;;;;;;;;;5063217;28;20262;-44
2023/07/16 11:48:43;;;;;;;2.50;2.00;;;;;;;;;;5066427;28;20225;-43
2023/07/16 11:51:10;;;;;;;2.83;1.80;;;;;;;;;;5061170;28;20227;-44
2023/07/16 11:53:38;;;;;;;2.25;1.65;;;;;;;;;;5063833;28;20214;-42
2023/07/16 11:56:06;;;;;;;2.22;1.70;;;;;;;;;;5072190;28;20227;-44
2023/07/16 11:58:33;;;;;;;3.63;1.98;;;;;;;;;;5072551;28;20223;-43
2023/07/16 12:01:01;;;;;;;2.53;1.88;;;;;;;;;;5072197;28;20219;-43
2023/07/16 12:03:28;;;;;;;2.80;2.10;;;;;;;;;;5071344;28;20257;-42
2023/07/16 12:05:56;;;;;;;4.35;1.58;;;;;;;;;;5072240;28;20252;-43
2023/07/16 12:08:22;;;;;;;2.53;1.77;;;;;;;;;;5068133;28;20302;-43
2023/07/16 12:10:50;;;;;;;2.55;1.52;;;;;;;;;;5062724;28;20227;-43
2023/07/16 12:13:17;;;;;;;2.53;1.90;;;;;;;;;;5061195;28;20231;-43
2023/07/16 12:15:44;;;;;;;2.47;1.80;;;;;;;;;;5062018;28;20217;-37
2023/07/16 12:18:11;;;;;;;4.45;1.80;;;;;;;;;;5061358;28;20584;-40
2023/07/16 12:20:39;;;;;;;2.00;1.80;;;;;;;;;;5061259;28;20215;-45
2023/07/16 12:23:07;;;;;;;2.42;1.88;;;;;;;;;;5060818;28;20762;-40
2023/07/16 12:25:35;;;;;;;2.72;2.10;;;;;;;;;;5062088;28;20219;-38
2023/07/16 12:28:02;;;;;;;4.28;2.72;;;;;;;;;;5062665;28;20211;-35
2023/07/16 12:30:29;;;;;;;3.08;2.40;;;;;;;;;;5061018;28;20222;-42
2023/07/16 12:32:56;;;;;;;3.92;1.60;;;;;;;;;;5065054;28;20589;-43
2023/07/16 12:35:24;;;;;;;2.53;2.03;;;;;;;;;;5062735;28;20234;-40
2023/07/16 12:37:51;;;;;;;2.13;1.70;;;;;;;;;;5064812;28;20726;-42
2023/07/16 12:40:18;;;;;;;2.80;2.00;;;;;;;;;;5065721;28;20218;-43
2023/07/16 12:42:46;;;;;;;2.90;2.00;;;;;;;;;;5064803;28;20231;-35
2023/07/16 12:45:13;;;;;;;2.13;1.60;;;;;;;;;;5069990;28;20218;-40
2023/07/16 12:47:40;;;;;;;2.40;1.80;;;;;;;;;;5076152;28;20325;-40
2023/07/16 12:50:08;;;;;;;2.60;1.80;;;;;;;;;;5075735;28;20226;-41
2023/07/16 12:52:35;;;;;;;1.92;1.73;;;;;;;;;;5075590;28;20573;-41
2023/07/16 12:55:03;;;;;;;2.85;1.95;;;;;;;;;;5076008;28;20227;-40
2023/07/16 12:57:30;;;;;;;2.78;1.77;;;;;;;;;;5075660;28;20711;-38
2023/07/16 12:59:57;;;;;;;5.60;2.50;;;;;;;;;;5067500;28;20210;-38
2023/07/16 13:02:24;;;;;;;4.25;2.60;;;;;;;;;;5065995;28;20241;-39
2023/07/16 13:04:52;;;;;;;2.00;1.80;;;;;;;;;;5063859;28;20226;-42
2023/07/16 13:07:19;;;;;;;2.33;1.80;;;;;;;;;;5063686;28;20215;-40
2023/07/16 13:09:46;;;;;;;11.98;7.05;;;;;;;;;;5072714;28;20221;-40
2023/07/16 13:12:13;;;;;;;5.28;3.78;;;;;;;;;;5070488;28;20730;-39
2023/07/16 13:14:40;;;;;;;12.35;10.23;;;;;;;;;;5064496;28;20215;-35
2023/07/16 13:17:08;;;;;;;2.70;2.00;;;;;;;;;;5066294;28;20714;-42
2023/07/16 13:19:35;;;;;;;4.95;2.13;;;;;;;;;;5065676;28;20211;-41
2023/07/16 13:22:02;;;;;;;3.13;1.70;;;;;;;;;;5069326;28;20243;-35
2023/07/16 13:24:30;;;;;;;2.72;1.63;;;;;;;;;;5066018;28;20292;-40
2023/07/16 13:26:57;;;;;;;2.00;1.48;;;;;;;;;;5068494;28;20219;-38
2023/07/16 13:29:24;;;;;;;2.97;1.60;;;;;;;;;;5066445;28;20231;-38
2023/07/16 13:31:51;;;;;;;1.60;1.50;;;;;;;;;;5055480;28;20223;-37
2023/07/16 13:34:18;;;;;;;2.40;1.60;;;;;;;;;;5054495;28;20231;-36
2023/07/16 13:36:45;;;;;;;2.13;1.55;;;;;;;;;;5055583;28;20234;-34
2023/07/16 13:39:16;;;;;;;2.40;1.83;;;;;;;;;;5062796;28;20214;-40
2023/07/16 13:41:43;;;;;;;2.28;1.35;;;;;;;;;;5060518;28;20326;-42
2023/07/16 13:44:11;;;;;;;2.80;1.80;;;;;;;;;;5057189;28;20215;-40
2023/07/16 13:46:38;;;;;;;3.40;1.90;;;;;;;;;;5069528;28;20256;-37
2023/07/16 13:49:05;;;;;;;1.90;1.48;;;;;;;;;;5061302;28;20211;-38
2023/07/16 13:51:32;;;;;;;2.65;1.73;;;;;;;;;;5065523;28;20708;-38
2023/07/16 13:53:59;;;;;;;1.70;1.50;;;;;;;;;;5062976;28;20310;-37
2023/07/16 13:56:26;;;;;;;2.40;1.80;;;;;;;;;;5054775;28;20220;-38
2023/07/16 13:58:53;;;;;;;1.70;1.60;;;;;;;;;;5062680;28;20220;-38
2023/07/16 14:01:22;;;;;;;3.38;2.22;;;;;;;;;;5054821;28;20231;-42
2023/07/16 14:03:49;;;;;;;3.00;1.77;;;;;;;;;;5054535;28;20228;-35
2023/07/16 14:06:16;;;;;;;1.70;1.48;;;;;;;;;;5036037;28;20616;-42
2023/07/16 14:08:44;;;;;;;2.67;1.67;;;;;;;;;;5059972;28;20211;-41
2023/07/16 14:11:11;;;;;;;1.98;1.80;;;;;;;;;;5063613;28;20219;-43
2023/07/16 14:13:38;;;;;;;3.35;1.70;;;;;;;;;;5062978;28;20714;-37
2023/07/16 14:16:06;;;;;;;3.42;2.08;;;;;;;;;;5064934;28;20760;-41
2023/07/16 14:18:33;;;;;;;3.22;1.67;;;;;;;;;;5061584;28;20277;-40
2023/07/16 14:21:02;;;;;;;2.08;1.88;;;;;;;;;;5071105;28;20284;-39
2023/07/16 14:23:30;;;;;;;2.63;2.00;;;;;;;;;;5061057;28;20215;-42
2023/07/16 14:25:57;;;;;;;2.47;1.80;;;;;;;;;;5071159;28;20214;-38
2023/07/16 14:28:24;;;;;;;2.33;1.70;;;;;;;;;;5067762;28;20270;-41
2023/07/16 14:30:52;;;;;;;3.20;1.80;;;;;;;;;;5062716;28;20550;-41
2023/07/16 14:33:18;;;;;;;2.25;1.58;;;;;;;;;;5064325;28;20329;-39
2023/07/16 14:35:46;;;;;;;2.03;1.75;;;;;;;;;;5062883;28;20223;-38
2023/07/16 14:38:13;;;;;;;3.40;1.75;;;;;;;;;;5067466;28;20218;-41
2023/07/16 14:40:42;;;;;;;1.75;1.65;;;;;;;;;;5065406;28;20218;-39
2023/07/16 14:43:09;;;;;;;1.95;1.60;;;;;;;;;;5062094;28;20215;-44
2023/07/16 14:45:36;;;;;;;1.95;1.73;;;;;;;;;;5061754;28;20281;-44
2023/07/16 14:48:05;;;;;;;2.85;1.95;;;;;;;;;;5062011;28;20306;-42
2023/07/16 14:50:32;;;;;;;2.53;2.10;;;;;;;;;;5063249;28;20906;-41
2023/07/16 14:52:59;;;;;;;2.78;1.58;;;;;;;;;;5064862;28;20699;-40
2023/07/16 14:55:27;;;;;;;2.00;1.60;;;;;;;;;;5060477;28;20733;-39
2023/07/16 14:57:55;;;;;;;1.70;1.60;;;;;;;;;;5063868;28;20284;-41
2023/07/16 15:00:23;;;;;;;2.22;1.85;;;;;;;;;;5064759;28;20223;-40
2023/07/16 15:02:50;;;;;;;2.15;1.63;;;;;;;;;;5061396;28;20332;-43
2023/07/16 15:05:18;;;;;;;2.72;1.80;;;;;;;;;;5072607;28;20227;-43
2023/07/16 15:07:46;;;;;;;2.42;1.70;;;;;;;;;;5068129;28;20596;-41
2023/07/16 15:10:13;;;;;;;2.42;1.85;;;;;;;;;;5057815;28;20313;-39
2023/07/16 15:12:41;;;;;;;1.98;1.70;;;;;;;;;;5053571;28;20231;-41
2023/07/16 15:15:10;;;;;;;2.00;1.60;;;;;;;;;;5064117;28;20211;-43
2023/07/16 15:17:38;;;;;;;2.10;1.80;;;;;;;;;;5062073;28;20223;-42
2023/07/16 15:20:06;;;;;;;2.55;1.70;;;;;;;;;;5061901;28;20730;-40
2023/07/16 15:22:34;;;;;;;4.28;1.77;;;;;;;;;;5066997;28;20238;-41
2023/07/16 15:25:02;;;;;;;3.17;2.30;;;;;;;;;;5072680;28;20280;-41
2023/07/16 15:27:29;;;;;;;2.10;1.83;;;;;;;;;;5073241;28;20234;-41
2023/07/16 15:29:56;;;;;;;2.63;1.77;;;;;;;;;;5071757;28;20233;-37
2023/07/16 15:32:24;;;;;;;2.85;1.80;;;;;;;;;;5061569;28;20595;-46
2023/07/16 15:34:51;;;;;;;2.03;1.83;;;;;;;;;;5064106;28;20226;-42
2023/07/16 15:37:19;;;;;;;2.22;1.75;;;;;;;;;;5072727;28;20225;-38
2023/07/16 15:39:46;;;;;;;2.05;1.73;;;;;;;;;;5072490;28;20281;-40
2023/07/16 15:42:13;;;;;;;3.40;1.95;;;;;;;;;;5072618;28;20231;-39
2023/07/16 15:44:41;;;;;;;3.35;1.80;;;;;;;;;;5065252;28;20711;-38
2023/07/16 15:47:08;;;;;;;1.98;1.50;;;;;;;;;;5061224;28;20884;-44
2023/07/16 15:49:36;;;;;;;1.85;1.50;;;;;;;;;;5061343;28;20547;-39
2023/07/16 15:52:03;;;;;;;2.45;1.80;;;;;;;;;;5065384;28;20699;-39
2023/07/16 15:54:30;;;;;;;1.83;1.48;;;;;;;;;;5062846;28;20227;-43
2023/07/16 15:56:57;;;;;;;7.28;4.78;;;;;;;;;;5061677;28;20772;-38
2023/07/16 15:59:24;;;;;;;2.90;2.10;;;;;;;;;;5063368;28;20244;-40
2023/07/16 16:01:54;;;;;;;2.22;1.85;;;;;;;;;;5060472;28;20249;-38